createdAt,value
2024-02-02T00:01:00.265Z,8.10
2024-02-02T00:03:27.843Z,9.40
2024-02-02T00:05:55.680Z,8.30
2024-02-02T00:08:24.552Z,10.20
2024-02-02T00:10:52.197Z,10.50
2024-02-02T00:13:19.860Z,8.10
2024-02-02T00:15:48.750Z,10.90
2024-02-02T00:18:16.480Z,7.70
2024-02-02T00:20:44.593Z,13.60
2024-02-02T00:23:13.475Z,12.70
2024-02-02T00:25:41.041Z,5.70
2024-02-02T00:28:08.593Z,9.90
2024-02-02T00:30:37.572Z,4.00
2024-02-02T00:33:05.576Z,10.00
2024-02-02T00:35:33.430Z,7.70
2024-02-02T00:38:02.216Z,7.70
2024-02-02T00:40:30.420Z,6.40
2024-02-02T00:42:58.050Z,4.70
2024-02-02T00:45:26.866Z,7.30
2024-02-02T00:47:54.882Z,7.30
2024-02-02T00:50:22.681Z,9.50
2024-02-02T00:52:51.505Z,10.00
2024-02-02T00:55:19.130Z,10.40
2024-02-02T00:57:46.743Z,10.30
2024-02-02T01:00:16.110Z,6.80
2024-02-02T01:02:43.741Z,8.10
2024-02-02T01:05:11.395Z,12.00
2024-02-02T01:07:40.284Z,7.40
2024-02-02T01:10:07.939Z,8.20
2024-02-02T01:12:35.628Z,6.70
2024-02-02T01:15:04.677Z,11.40
2024-02-02T01:17:32.356Z,8.20
2024-02-02T01:20:00.089Z,8.00
2024-02-02T01:22:29.097Z,6.10
2024-02-02T01:24:56.669Z,7.10
2024-02-02T01:27:24.374Z,11.50
2024-02-02T01:29:53.264Z,5.00
2024-02-02T01:32:21.026Z,9.30
2024-02-02T01:34:48.850Z,7.20
2024-02-02T01:37:17.837Z,7.70
2024-02-02T01:39:45.389Z,4.60
2024-02-02T01:42:12.985Z,7.10
2024-02-02T01:44:41.947Z,11.40
2024-02-02T01:47:09.649Z,7.20
2024-02-02T01:49:37.601Z,8.80
2024-02-02T01:52:06.557Z,6.10
2024-02-02T01:54:34.241Z,5.60
2024-02-02T01:57:01.881Z,9.10
2024-02-02T01:59:30.775Z,7.40
2024-02-02T02:01:58.733Z,11.70
2024-02-02T02:04:26.459Z,9.90
2024-02-02T02:06:55.593Z,8.00
2024-02-02T02:09:23.386Z,6.60
2024-02-02T02:11:51.077Z,9.20
2024-02-02T02:14:19.969Z,8.10
2024-02-02T02:16:47.875Z,9.90
2024-02-02T02:19:15.755Z,10.40
2024-02-02T02:21:44.745Z,5.20
2024-02-02T02:24:13.170Z,10.00
2024-02-02T02:26:40.877Z,8.80
2024-02-02T02:29:09.788Z,8.60
2024-02-02T02:31:37.144Z,6.30
2024-02-02T02:34:05.030Z,7.90
2024-02-02T02:36:34.045Z,8.40
2024-02-02T02:39:01.881Z,9.40
2024-02-02T02:41:29.518Z,10.30
2024-02-02T02:43:58.299Z,10.80
2024-02-02T02:46:25.960Z,13.00
2024-02-02T02:48:54.078Z,5.10
2024-02-02T02:51:23.217Z,7.70
2024-02-02T02:53:50.921Z,11.00
2024-02-02T02:56:18.453Z,6.10
2024-02-02T02:58:47.245Z,6.50
2024-02-02T03:01:14.853Z,12.00
2024-02-02T03:03:42.620Z,11.90
2024-02-02T03:06:11.620Z,7.80
2024-02-02T03:08:39.323Z,10.30
2024-02-02T03:11:06.992Z,9.10
2024-02-02T03:13:35.768Z,11.50
2024-02-02T03:16:03.331Z,7.90
2024-02-02T03:18:31.339Z,7.70
2024-02-02T03:21:00.486Z,9.90
2024-02-02T03:23:28.153Z,8.50
2024-02-02T03:25:55.716Z,8.20
2024-02-02T03:28:24.518Z,10.60
2024-02-02T03:30:52.166Z,8.10
2024-02-02T03:33:20.261Z,9.60
2024-02-02T03:35:49.372Z,8.90
2024-02-02T03:38:17.005Z,13.00
2024-02-02T03:40:44.518Z,11.50
2024-02-02T03:43:13.344Z,6.50
2024-02-02T03:45:41.040Z,5.90
2024-02-02T03:48:08.669Z,11.00
2024-02-02T03:50:37.640Z,8.70
2024-02-02T03:53:05.527Z,12.90
2024-02-02T03:55:33.171Z,6.90
2024-02-02T03:58:02.082Z,7.10
2024-02-02T04:00:30.229Z,7.30
2024-02-02T04:02:57.929Z,9.40
2024-02-02T04:05:27.047Z,9.10
2024-02-02T04:07:54.762Z,9.30
2024-02-02T04:10:22.328Z,10.30
2024-02-02T04:12:51.228Z,7.90
2024-02-02T04:15:19.100Z,11.00
2024-02-02T04:17:46.769Z,6.10
2024-02-02T04:20:15.657Z,9.50
2024-02-02T04:22:43.290Z,10.70
2024-02-02T04:25:10.852Z,6.60
2024-02-02T04:27:39.744Z,7.80
2024-02-02T04:30:07.329Z,7.40
2024-02-02T04:32:35.203Z,10.70
2024-02-02T04:35:04.271Z,8.60
2024-02-02T04:37:32.221Z,7.90
2024-02-02T04:39:59.780Z,12.80
2024-02-02T04:42:28.749Z,8.00
2024-02-02T04:44:56.546Z,5.10
2024-02-02T04:47:24.295Z,13.90
2024-02-02T04:49:53.269Z,5.20
2024-02-02T04:52:20.955Z,10.30
2024-02-02T04:54:48.609Z,13.60
2024-02-02T04:57:17.749Z,7.40
2024-02-02T04:59:45.469Z,10.70
2024-02-02T05:02:13.143Z,11.90
2024-02-02T05:04:42.261Z,11.30
2024-02-02T05:07:09.986Z,9.90
2024-02-02T05:09:37.696Z,9.70
2024-02-02T05:12:06.803Z,14.60
2024-02-02T05:14:34.421Z,9.10
2024-02-02T05:17:02.075Z,11.20
2024-02-02T05:19:31.286Z,9.30
2024-02-02T05:21:58.829Z,10.00
2024-02-02T05:24:38.486Z,9.70
2024-02-02T05:27:14.346Z,12.10
2024-02-02T05:29:42.209Z,9.70
2024-02-02T05:32:12.198Z,9.70
2024-02-02T05:34:39.940Z,9.10
2024-02-02T05:37:07.634Z,10.90
2024-02-02T05:39:36.441Z,12.90
2024-02-02T05:42:04.200Z,12.80
2024-02-02T05:44:31.840Z,11.20
2024-02-02T05:47:00.619Z,9.90
2024-02-02T05:49:28.237Z,9.50
2024-02-02T05:51:56.020Z,13.80
2024-02-02T05:54:25.177Z,8.90
2024-02-02T05:56:52.893Z,14.30
2024-02-02T05:59:20.980Z,12.20
2024-02-02T06:01:49.767Z,13.70
2024-02-02T06:04:17.453Z,16.30
2024-02-02T06:06:45.071Z,11.50
2024-02-02T06:09:14.097Z,13.00
2024-02-02T06:11:41.457Z,15.20
2024-02-02T06:14:09.605Z,16.10
2024-02-02T06:16:38.396Z,10.40
2024-02-02T06:19:05.974Z,14.60
2024-02-02T06:21:33.538Z,15.80
2024-02-02T06:24:02.845Z,24.80
2024-02-02T06:26:30.382Z,30.70
2024-02-02T06:28:57.932Z,14.80
2024-02-02T06:31:26.728Z,23.90
2024-02-02T06:33:54.360Z,10.00
2024-02-02T06:36:22.171Z,14.90
2024-02-02T06:38:50.834Z,18.70
2024-02-02T06:41:18.613Z,23.20
2024-02-02T06:43:46.155Z,36.80
2024-02-02T06:46:14.980Z,23.50
2024-02-02T06:48:43.048Z,25.10
2024-02-02T06:51:10.783Z,22.40
2024-02-02T06:53:39.661Z,33.60
2024-02-02T06:56:07.372Z,31.10
2024-02-02T06:58:35.079Z,38.60
2024-02-02T07:01:04.069Z,23.80
2024-02-02T07:03:31.847Z,15.10
2024-02-02T07:05:59.633Z,15.70
2024-02-02T07:08:28.717Z,11.70
2024-02-02T07:10:56.667Z,12.80
2024-02-02T07:13:24.242Z,15.50
2024-02-02T07:15:53.226Z,18.60
2024-02-02T07:18:21.107Z,19.60
2024-02-02T07:20:48.863Z,21.30
2024-02-02T07:23:17.738Z,25.80
2024-02-02T07:25:45.312Z,18.90
2024-02-02T07:28:12.858Z,16.80
2024-02-02T07:30:41.681Z,16.10
2024-02-02T07:33:09.251Z,19.40
2024-02-02T07:35:37.086Z,53.30
2024-02-02T07:38:05.990Z,27.80
2024-02-02T07:40:33.636Z,21.90
2024-02-02T07:43:01.426Z,14.40
2024-02-02T07:45:30.400Z,30.70
2024-02-02T07:47:58.051Z,31.80
2024-02-02T07:50:26.076Z,19.40
2024-02-02T07:52:56.331Z,34.00
2024-02-02T07:55:24.020Z,22.30
2024-02-02T07:57:52.996Z,18.30
2024-02-02T08:00:20.669Z,23.20
2024-02-02T08:02:48.310Z,28.10
2024-02-02T08:05:17.195Z,25.20
2024-02-02T08:07:44.761Z,27.30
2024-02-02T08:10:12.419Z,29.20
2024-02-02T08:12:41.639Z,34.00
2024-02-02T08:15:09.440Z,29.80
2024-02-02T08:17:37.071Z,31.60
2024-02-02T08:20:05.894Z,39.20
2024-02-02T08:22:33.482Z,18.10
2024-02-02T08:25:01.048Z,26.70
2024-02-02T08:27:29.830Z,16.30
2024-02-02T08:29:57.523Z,36.40
2024-02-02T08:32:25.277Z,32.50
2024-02-02T08:34:54.561Z,22.50
2024-02-02T08:37:22.117Z,18.70
2024-02-02T08:39:50.090Z,15.90
2024-02-02T08:42:18.950Z,16.30
2024-02-02T08:44:47.048Z,15.00
2024-02-02T08:47:14.607Z,16.30
2024-02-02T08:49:43.548Z,21.50
2024-02-02T08:52:11.461Z,19.00
2024-02-02T08:54:39.139Z,12.10
2024-02-02T08:57:08.034Z,11.60
2024-02-02T08:59:35.675Z,20.20
2024-02-02T09:02:03.241Z,10.30
2024-02-02T09:04:32.220Z,15.30
2024-02-02T09:06:59.978Z,16.10
2024-02-02T09:09:27.761Z,11.00
2024-02-02T09:11:56.586Z,12.20
2024-02-02T09:16:52.390Z,15.40
2024-02-02T09:19:21.238Z,13.20
2024-02-02T09:21:49.030Z,16.30
2024-02-02T09:24:16.701Z,16.30
2024-02-02T09:26:45.682Z,12.90
2024-02-02T09:29:13.126Z,19.30
2024-02-02T09:31:40.496Z,11.40
2024-02-02T09:34:09.558Z,10.90
2024-02-02T09:36:37.530Z,12.80
2024-02-02T09:39:05.248Z,10.90
2024-02-02T09:41:34.109Z,11.70
2024-02-02T09:44:01.686Z,9.10
2024-02-02T09:46:29.537Z,10.80
2024-02-02T09:48:58.548Z,10.10
2024-02-02T09:51:26.447Z,9.60
2024-02-02T09:53:54.341Z,17.30
2024-02-02T09:56:23.203Z,10.30
2024-02-02T09:58:50.827Z,18.50
2024-02-02T10:01:18.716Z,13.90
2024-02-02T10:03:47.685Z,11.20
2024-02-02T10:06:15.414Z,10.80
2024-02-02T10:08:43.300Z,14.10
2024-02-02T10:11:12.090Z,12.90
2024-02-02T10:13:39.758Z,10.20
2024-02-02T10:16:07.315Z,15.70
2024-02-02T10:18:36.318Z,11.10
2024-02-02T10:21:05.736Z,9.40
2024-02-02T10:23:34.913Z,30.80
2024-02-02T10:26:02.497Z,21.90
2024-02-02T10:28:30.340Z,21.00
2024-02-02T10:30:59.325Z,13.30
2024-02-02T10:33:27.228Z,21.00
2024-02-02T10:35:54.979Z,14.70
2024-02-02T10:38:23.949Z,13.90
2024-02-02T10:40:51.604Z,9.80
2024-02-02T10:43:19.269Z,11.10
2024-02-02T10:45:48.121Z,11.00
2024-02-02T10:48:16.769Z,11.70
2024-02-02T10:50:46.960Z,16.10
2024-02-02T10:53:14.511Z,10.70
2024-02-02T10:55:42.184Z,8.80
2024-02-02T10:58:10.978Z,11.90
2024-02-02T11:00:38.722Z,5.90
2024-02-02T11:03:06.482Z,8.60
2024-02-02T11:05:35.409Z,13.90
2024-02-02T11:08:03.163Z,11.40
2024-02-02T11:10:30.820Z,6.70
2024-02-02T11:12:59.509Z,8.40
2024-02-02T11:15:27.059Z,11.70
2024-02-02T11:17:55.015Z,9.30
2024-02-02T11:20:24.118Z,6.90
2024-02-02T11:22:51.978Z,9.30
2024-02-02T11:25:19.672Z,13.30
2024-02-02T11:27:48.446Z,13.90
2024-02-02T11:30:15.888Z,15.60
2024-02-02T11:32:43.503Z,7.90
2024-02-02T11:35:12.293Z,11.30
2024-02-02T11:37:39.786Z,9.90
2024-02-02T11:40:07.265Z,16.00
2024-02-02T11:42:36.538Z,10.10
2024-02-02T11:45:04.220Z,9.60
2024-02-02T11:47:34.016Z,11.90
2024-02-02T11:50:01.692Z,10.60
2024-02-02T11:52:29.452Z,11.30
2024-02-02T11:54:58.235Z,11.10
2024-02-02T11:57:26.322Z,13.00
2024-02-02T11:59:54.788Z,12.00
2024-02-02T12:02:24.293Z,10.80
2024-02-02T12:04:51.927Z,7.40
2024-02-02T12:07:19.892Z,7.90
2024-02-02T12:09:48.920Z,9.40
2024-02-02T12:12:16.533Z,12.50
2024-02-02T12:14:44.453Z,12.50
2024-02-02T12:17:13.356Z,26.00
2024-02-02T12:19:41.013Z,22.20
2024-02-02T12:22:08.858Z,11.20
2024-02-02T12:24:38.124Z,32.50
2024-02-02T12:27:05.830Z,13.60
2024-02-02T12:29:33.479Z,5.70
2024-02-02T12:32:02.192Z,49.70
2024-02-02T12:34:29.738Z,9.60
2024-02-02T12:36:57.424Z,12.70
2024-02-02T12:39:26.362Z,14.70
2024-02-02T12:41:54.041Z,14.60
2024-02-02T12:44:22.014Z,21.60
2024-02-02T12:46:50.804Z,19.40
2024-02-02T12:49:18.614Z,10.50
2024-02-02T12:51:46.165Z,9.30
2024-02-02T12:54:15.049Z,11.20
2024-02-02T12:56:42.573Z,15.90
2024-02-02T12:59:10.092Z,21.20
2024-02-02T13:01:38.858Z,11.70
2024-02-02T13:04:06.616Z,12.00
2024-02-02T13:06:34.172Z,7.40
2024-02-02T13:09:03.547Z,16.40
2024-02-02T13:11:31.203Z,12.10
2024-02-02T13:13:58.859Z,14.70
2024-02-02T13:16:27.650Z,13.20
2024-02-02T13:18:55.483Z,22.00
2024-02-02T13:21:26.641Z,26.20
2024-02-02T13:23:55.582Z,28.60
2024-02-02T13:26:23.014Z,28.10
2024-02-02T13:28:50.650Z,15.70
2024-02-02T13:31:19.583Z,17.60
2024-02-02T13:33:48.014Z,11.20
2024-02-02T13:36:18.401Z,11.80
2024-02-02T13:38:46.046Z,13.60
2024-02-02T13:41:13.493Z,14.20
2024-02-02T13:43:42.175Z,13.80
2024-02-02T13:46:09.730Z,29.00
2024-02-02T13:48:37.386Z,43.30
2024-02-02T13:51:06.308Z,22.80
2024-02-02T13:53:34.449Z,19.50
2024-02-02T13:56:02.184Z,15.20
2024-02-02T13:58:31.113Z,9.10
2024-02-02T14:00:58.715Z,13.40
2024-02-02T14:03:26.402Z,16.50
2024-02-02T14:05:55.434Z,12.10
2024-02-02T14:08:22.890Z,11.90
2024-02-02T14:10:50.361Z,12.90
2024-02-02T14:13:19.226Z,14.60
2024-02-02T14:15:47.181Z,17.10
2024-02-02T14:18:14.831Z,16.10
2024-02-02T14:20:43.736Z,24.00
2024-02-02T14:23:11.411Z,24.80
2024-02-02T14:25:38.956Z,25.40
2024-02-02T14:28:07.753Z,38.80
2024-02-02T14:30:35.356Z,41.30
2024-02-02T14:33:13.901Z,33.90
2024-02-02T14:35:51.033Z,25.00
2024-02-02T14:38:18.685Z,19.60
2024-02-02T14:40:46.219Z,16.20
2024-02-02T14:43:15.121Z,16.40
2024-02-02T14:45:42.690Z,15.10
2024-02-02T14:48:10.527Z,12.40
2024-02-02T14:50:39.530Z,25.60
2024-02-02T14:53:07.509Z,28.10
2024-02-02T14:55:35.157Z,22.10
2024-02-02T14:58:03.945Z,50.00
2024-02-02T15:00:31.763Z,116.00
2024-02-02T15:02:59.700Z,78.90
2024-02-02T15:05:28.704Z,137.60
2024-02-02T15:07:56.443Z,748.10
2024-02-02T15:10:24.001Z,631.70
2024-02-02T15:12:52.700Z,822.70
2024-02-02T15:15:20.546Z,1525.50
2024-02-02T15:17:48.255Z,1636.50
2024-02-02T15:20:17.193Z,806.80
2024-02-02T15:22:44.769Z,644.60
2024-02-02T15:25:12.437Z,474.80
2024-02-02T15:27:41.331Z,162.00
2024-02-02T15:30:08.834Z,38.60
2024-02-02T15:32:36.429Z,52.20
2024-02-02T15:35:05.422Z,36.80
2024-02-02T15:37:33.602Z,39.40
2024-02-02T15:40:03.864Z,39.10
2024-02-02T15:42:34.227Z,59.90
2024-02-02T15:45:04.494Z,32.40
2024-02-02T15:47:31.986Z,189.50
2024-02-02T15:49:59.768Z,112.60
2024-02-02T15:52:28.785Z,152.70
2024-02-02T15:54:56.748Z,101.10
2024-02-02T15:57:24.417Z,138.50
2024-02-02T15:59:53.500Z,110.20
2024-02-02T16:02:21.067Z,216.10
2024-02-02T16:04:48.656Z,310.30
2024-02-02T16:07:17.655Z,303.90
2024-02-02T16:09:45.432Z,482.10
2024-02-02T16:12:13.134Z,535.90
2024-02-02T16:14:42.235Z,624.70
2024-02-02T16:17:10.086Z,469.70
2024-02-02T16:19:37.767Z,347.30
2024-02-02T16:22:06.754Z,408.60
2024-02-02T16:24:34.515Z,547.10
2024-02-02T16:27:02.320Z,634.90
2024-02-02T16:29:31.190Z,251.00
2024-02-02T16:31:58.855Z,194.10
2024-02-02T16:34:26.506Z,247.90
2024-02-02T16:36:55.519Z,165.20
2024-02-02T16:39:23.083Z,108.10
2024-02-02T16:41:50.491Z,76.00
2024-02-02T16:44:19.212Z,277.50
2024-02-02T16:46:46.676Z,128.30
2024-02-02T16:49:14.266Z,115.30
2024-02-02T16:51:43.218Z,106.70
2024-02-02T16:54:11.480Z,33.70
2024-02-02T16:56:39.141Z,21.30
2024-02-02T16:59:08.033Z,47.30
2024-02-02T17:01:35.626Z,78.00
2024-02-02T17:04:03.498Z,54.60
2024-02-02T17:06:32.533Z,44.70
2024-02-02T17:09:00.303Z,20.30
2024-02-02T17:11:28.076Z,16.40
2024-02-02T17:13:56.876Z,15.90
2024-02-02T17:16:24.417Z,61.80
2024-02-02T17:18:52.062Z,28.60
2024-02-02T17:21:21.318Z,23.10
2024-02-02T17:23:48.945Z,16.50
2024-02-02T17:26:16.409Z,14.20
2024-02-02T17:28:45.298Z,26.00
2024-02-02T17:31:12.862Z,30.70
2024-02-02T17:33:40.648Z,78.40
2024-02-02T17:36:09.947Z,19.20
2024-02-02T17:38:37.672Z,13.70
2024-02-02T17:41:05.227Z,19.30
2024-02-02T17:43:34.124Z,19.40
2024-02-02T17:46:01.676Z,17.70
2024-02-02T17:48:29.441Z,23.80
2024-02-02T17:50:58.467Z,28.30
2024-02-02T17:53:25.894Z,21.70
2024-02-02T17:55:53.555Z,27.30
2024-02-02T17:58:22.435Z,24.20
2024-02-02T18:00:50.051Z,23.90
2024-02-02T18:03:18.126Z,17.70
2024-02-02T18:05:46.877Z,23.40
2024-02-02T18:08:14.452Z,22.30
2024-02-02T18:10:42.103Z,22.10
2024-02-02T18:13:10.972Z,24.40
2024-02-02T18:15:38.708Z,21.70
2024-02-02T18:18:06.469Z,22.60
2024-02-02T18:20:35.319Z,23.60
2024-02-02T18:23:02.936Z,16.00
2024-02-02T18:25:30.920Z,20.60
2024-02-02T18:27:59.694Z,21.50
2024-02-02T18:30:27.325Z,23.30
2024-02-02T18:32:55.059Z,20.10
2024-02-02T18:35:24.079Z,22.40
2024-02-02T18:37:51.682Z,19.50
2024-02-02T18:40:19.246Z,20.80
2024-02-02T18:42:48.248Z,20.10
2024-02-02T18:45:16.445Z,24.40
2024-02-02T18:47:43.987Z,26.00
2024-02-02T18:50:13.074Z,23.60
2024-02-02T18:52:40.615Z,28.10
2024-02-02T18:55:08.379Z,20.30
2024-02-02T18:57:37.370Z,18.80
2024-02-02T19:00:04.998Z,18.30
2024-02-02T19:02:32.713Z,16.90
2024-02-02T19:05:02.068Z,15.20
2024-02-02T19:07:29.984Z,18.50
2024-02-02T19:09:59.976Z,21.10
2024-02-02T19:12:27.747Z,19.50
2024-02-02T19:14:55.410Z,18.90
2024-02-02T19:17:24.212Z,18.40
2024-02-02T19:19:52.005Z,16.60
2024-02-02T19:22:19.836Z,17.90
2024-02-02T19:24:48.691Z,17.90
2024-02-02T19:27:16.708Z,16.80
2024-02-02T19:29:44.340Z,16.20
2024-02-02T19:32:13.192Z,19.20
2024-02-02T19:34:40.830Z,18.00
2024-02-02T19:37:08.560Z,16.80
2024-02-02T19:39:37.514Z,21.70
2024-02-02T19:42:05.352Z,18.90
2024-02-02T19:44:32.868Z,22.20
2024-02-02T19:47:02.126Z,17.00
2024-02-02T19:49:29.807Z,19.50
2024-02-02T19:51:57.677Z,19.90
2024-02-02T19:54:26.712Z,17.60
2024-02-02T19:56:54.159Z,14.90
2024-02-02T19:59:21.754Z,14.90
2024-02-02T20:01:50.459Z,16.10
2024-02-02T20:04:18.160Z,13.90
2024-02-02T20:06:46.110Z,21.90
2024-02-02T20:09:15.454Z,17.30
2024-02-02T20:11:42.872Z,20.10
2024-02-02T20:14:10.440Z,16.70
2024-02-02T20:16:39.331Z,17.60
2024-02-02T20:19:07.087Z,19.00
2024-02-02T20:21:34.869Z,19.40
2024-02-02T20:24:03.773Z,15.80
2024-02-02T20:26:31.409Z,18.00
2024-02-02T20:28:59.072Z,19.30
2024-02-02T20:31:27.956Z,19.30
2024-02-02T20:33:56.066Z,20.40
2024-02-02T20:36:24.150Z,17.10
2024-02-02T20:38:53.198Z,18.80
2024-02-02T20:41:20.755Z,21.60
2024-02-02T20:43:48.413Z,19.20
2024-02-02T20:46:17.307Z,21.80
2024-02-02T20:48:44.941Z,20.50
2024-02-02T20:51:15.037Z,26.80
2024-02-02T20:53:46.339Z,42.30
2024-02-02T20:56:13.903Z,31.90
2024-02-02T20:58:41.452Z,27.70
2024-02-02T21:01:10.316Z,32.60
2024-02-02T21:03:37.852Z,24.60
2024-02-02T21:06:05.810Z,23.20
2024-02-02T21:08:34.751Z,35.40
2024-02-02T21:11:02.236Z,38.20
2024-02-02T21:13:29.869Z,30.90
2024-02-02T21:15:59.103Z,23.50
2024-02-02T21:18:26.825Z,18.50
2024-02-02T21:20:54.593Z,20.00
2024-02-02T21:23:23.332Z,27.40
2024-02-02T21:25:50.940Z,29.20
2024-02-02T21:28:18.446Z,27.10
2024-02-02T21:30:47.710Z,26.40
2024-02-02T21:33:18.702Z,25.70
2024-02-02T21:35:50.493Z,24.70
2024-02-02T21:38:18.366Z,23.10
2024-02-02T21:40:46.020Z,25.10
2024-02-02T21:43:14.807Z,21.00
2024-02-02T21:45:42.440Z,20.30
2024-02-02T21:48:10.378Z,13.50
2024-02-02T21:50:39.332Z,12.60
2024-02-02T21:53:06.741Z,11.80
2024-02-02T21:55:34.344Z,10.60
2024-02-02T21:58:03.540Z,9.40
2024-02-02T22:00:31.358Z,9.30
2024-02-02T22:02:59.169Z,11.30
2024-02-02T22:05:27.974Z,12.00
2024-02-02T22:07:55.516Z,8.70
2024-02-02T22:10:23.085Z,9.90
2024-02-02T22:12:51.980Z,10.30
2024-02-02T22:15:19.543Z,8.60
2024-02-02T22:17:47.218Z,11.30
2024-02-02T22:20:16.484Z,7.60
2024-02-02T22:22:43.958Z,8.80
2024-02-02T22:25:11.498Z,9.60
2024-02-02T22:27:40.365Z,9.70
2024-02-02T22:30:08.076Z,9.50
2024-02-02T22:32:36.611Z,10.20
2024-02-02T22:35:05.644Z,8.70
2024-02-02T22:37:33.298Z,11.30
2024-02-02T22:40:01.179Z,10.80
2024-02-02T22:42:30.062Z,9.70
2024-02-02T22:44:57.603Z,8.20
2024-02-02T22:47:25.263Z,8.90
2024-02-02T22:49:54.074Z,7.00
2024-02-02T22:52:21.614Z,11.20
2024-02-02T22:54:49.343Z,12.00
2024-02-02T22:57:18.215Z,7.90
2024-02-02T22:59:53.190Z,10.20
2024-02-02T23:02:27.470Z,12.70
2024-02-02T23:04:55.290Z,9.80
2024-02-02T23:07:22.920Z,10.80
2024-02-02T23:09:51.972Z,9.30
2024-02-02T23:12:19.535Z,6.80
2024-02-02T23:14:47.026Z,11.00
2024-02-02T23:17:15.839Z,9.40
2024-02-02T23:19:45.166Z,8.10
2024-02-02T23:22:14.337Z,8.30
2024-02-02T23:24:42.082Z,7.20
2024-02-02T23:27:09.799Z,14.60
2024-02-02T23:29:38.655Z,9.20
2024-02-02T23:32:06.235Z,11.70
2024-02-02T23:34:34.032Z,9.60
2024-02-02T23:37:02.871Z,9.30
2024-02-02T23:39:30.800Z,10.00
2024-02-02T23:41:58.593Z,10.80
2024-02-02T23:44:27.389Z,10.00
2024-02-02T23:46:55.049Z,11.10
2024-02-02T23:49:22.719Z,9.80
2024-02-02T23:51:51.426Z,11.70
2024-02-02T23:54:19.194Z,11.00
2024-02-02T23:56:46.921Z,9.90
2024-02-02T23:59:15.697Z,9.60
